Time;durP1;ratioP1;P1;durP2;ratioP2;P2;SDS_P1;SDS_P2;PMS_P1;PMS_P2;Temp;Humidity;BMP_temperature;BMP_pressure;BME280_temperature;BME280_humidity;BME280_pressure;Samples;Min_cycle;Max_cycle;Signal;HPM_P1;HPM_P2
2024/03/10 00:00:39;;;;;;;;;;;;;;;7.52;81.71;94468.66;5064722;28;19942;-73
2024/03/10 00:03:06;;;;;;;;;;;;;;;7.50;82.34;94462.88;5064611;28;20218;-78
2024/03/10 00:05:33;;;;;;;;;;;;;;;7.48;82.13;94468.34;5064644;28;20229;-80
2024/03/10 00:07:59;;;;;;;;;;;;;;;7.47;82.91;94461.53;5046772;28;20254;-70
2024/03/10 00:10:25;;;;;;;;;;;;;;;7.46;81.93;94467.81;5064765;28;19935;-68
2024/03/10 00:12:51;;;;;;;;;;;;;;;7.45;81.74;94461.00;5064857;28;19993;-69
2024/03/10 00:15:20;;;;;;;;;;;;;;;7.44;81.37;94462.03;5064680;28;19932;-69
2024/03/10 00:17:46;;;;;;;;;;;;;;;7.44;81.51;94461.25;5064888;28;19945;-69
2024/03/10 00:20:13;;;;;;;;;;;;;;;7.42;81.96;94455.50;5064304;28;19927;-69
2024/03/10 00:22:39;;;;;;;;;;;;;;;7.41;82.76;94464.34;5064831;28;19940;-74
2024/03/10 00:25:08;;;;;;;;;;;;;;;7.40;82.83;94465.41;5064213;28;20227;-81
2024/03/10 00:27:36;;;;;;;;;;;;;;;7.38;73.41;94460.41;5064463;28;19952;-79
2024/03/10 00:30:05;;;;;;;;;;;;;;;7.39;81.16;94456.78;5046667;28;19934;-81
2024/03/10 00:32:35;;;;;;;;;;;;;;;7.40;83.04;94450.53;5046999;28;19955;-80
2024/03/10 00:35:01;;;;;;;;;;;;;;;7.39;83.54;94451.59;5064280;28;19935;-80
2024/03/10 00:37:28;;;;;;;;;;;;;;;7.39;82.67;94456.78;5063939;28;19961;-80
2024/03/10 00:39:54;;;;;;;;;;;;;;;7.38;81.62;94457.03;5064876;28;20022;-71
2024/03/10 00:42:23;;;;;;;;;;;;;;;7.37;81.92;94453.66;5064789;28;19947;-80
2024/03/10 00:44:50;;;;;;;;;;;;;;;7.39;81.98;94455.97;5046967;28;19942;-73
2024/03/10 00:47:16;;;;;;;;;;;;;;;7.38;82.29;94455.22;5063950;28;19942;-73
2024/03/10 00:49:42;;;;;;;;;;;;;;;7.35;82.49;94444.47;5064463;28;19943;-73
2024/03/10 00:52:09;;;;;;;;;;;;;;;7.35;82.46;94447.88;5063892;28;20215;-73
2024/03/10 00:54:35;;;;;;;;;;;;;;;7.35;82.74;94441.88;5064371;28;19928;-73
2024/03/10 00:57:01;;;;;;;;;;;;;;;7.35;82.07;94450.50;5064332;28;19935;-73
2024/03/10 00:59:27;;;;;;;;;;;;;;;7.35;81.57;94441.88;5063786;28;20249;-73
2024/03/10 01:01:53;;;;;;;;;;;;;;;7.36;81.12;94448.66;5046983;28;19933;-74
2024/03/10 01:04:19;;;;;;;;;;;;;;;7.36;81.75;94439.03;5064282;28;19956;-74
2024/03/10 01:06:45;;;;;;;;;;;;;;;7.38;82.01;94441.38;5063758;28;19942;-73
2024/03/10 01:09:13;;;;;;;;;;;;;;;7.37;82.15;94443.22;5064420;28;20214;-73
2024/03/10 01:11:40;;;;;;;;;;;;;;;7.36;81.85;94435.63;5063662;28;20222;-73
2024/03/10 01:14:06;;;;;;;;;;;;;;;7.37;81.69;94427.56;5064413;28;20036;-73
2024/03/10 01:16:32;;;;;;;;;;;;;;;7.36;81.31;94420.00;5064172;28;20206;-79
2024/03/10 01:18:59;;;;;;;;;;;;;;;7.37;81.32;94424.16;5063655;28;19959;-71
2024/03/10 01:21:25;;;;;;;;;;;;;;;7.36;81.19;94420.00;5030126;28;19940;-73
2024/03/10 01:23:52;;;;;;;;;;;;;;;7.34;81.15;94417.63;5045951;28;20261;-73
2024/03/10 01:26:18;;;;;;;;;;;;;;;7.34;81.10;94420.22;5063546;28;19934;-74
2024/03/10 01:28:44;;;;;;;;;;;;;;;7.33;81.05;94408.25;5063760;28;19939;-74
2024/03/10 01:31:10;;;;;;;;;;;;;;;7.31;81.63;94411.09;5063501;28;19936;-73
2024/03/10 01:33:36;;;;;;;;;;;;;;;7.31;80.93;94416.31;5064174;28;19960;-73
2024/03/10 01:36:06;;;;;;;;;;;;;;;7.30;82.11;94403.50;5064166;28;19940;-75
2024/03/10 01:38:32;;;;;;;;;;;;;;;7.28;81.89;94401.13;5029182;28;19962;-73
2024/03/10 01:40:58;;;;;;;;;;;;;;;7.28;81.33;94390.72;5047260;28;20113;-73
2024/03/10 01:43:25;;;;;;;;;;;;;;;7.28;81.51;94395.16;5067855;28;19935;-73
2024/03/10 01:45:53;;;;;;;;;;;;;;;7.28;82.56;94387.31;5067830;28;20208;-73
2024/03/10 01:48:19;;;;;;;;;;;;;;;7.26;83.04;94381.56;5067697;28;19937;-73
2024/03/10 01:50:45;;;;;;;;;;;;;;;7.27;82.48;94377.94;5067764;28;19931;-73
2024/03/10 01:53:11;;;;;;;;;;;;;;;7.27;82.39;94373.50;5067045;28;19952;-71
2024/03/10 01:55:37;;;;;;;;;;;;;;;7.27;81.48;94372.72;5049419;28;19947;-69
2024/03/10 01:58:03;;;;;;;;;;;;;;;7.26;81.74;94371.91;5067847;28;19929;-73
2024/03/10 02:00:29;;;;;;;;;;;;;;;7.25;81.98;94365.16;5067017;28;20251;-73
2024/03/10 02:02:57;;;;;;;;;;;;;;;7.27;81.95;94365.69;5066921;28;20022;-74
2024/03/10 02:05:23;;;;;;;;;;;;;;;7.26;82.10;94358.88;5066880;28;19934;-73
2024/03/10 02:07:49;;;;;;;;;;;;;;;7.25;82.08;94349.50;5066867;28;19936;-73
2024/03/10 02:10:15;;;;;;;;;;;;;;;7.26;80.41;94348.47;5066772;28;19937;-73
2024/03/10 02:12:40;;;;;;;;;;;;;;;7.25;80.71;94352.13;5066874;28;19955;-74
2024/03/10 02:15:06;;;;;;;;;;;;;;;7.27;81.48;94349.28;5048869;28;20232;-68
2024/03/10 02:17:36;;;;;;;;;;;;;;;7.27;81.32;94347.44;5032404;28;20123;-69
2024/03/10 02:20:14;;;;;;;;;;;;;;;7.27;81.56;94352.66;5067136;28;19940;-69
2024/03/10 02:22:41;;;;;;;;;;;;;;;7.28;81.30;94348.22;5066888;28;20220;-69
2024/03/10 02:25:09;;;;;;;;;;;;;;;7.27;80.43;94336.22;5067296;28;20110;-68
2024/03/10 02:27:42;;;;;;;;;;;;;;;7.25;80.20;94333.09;5066450;28;19935;-69
2024/03/10 02:49:14;;;;;;;;;;;;;;;7.05;79.69;94302.41;5066474;28;19932;-73
2024/03/10 02:51:41;;;;;;;;;;;;;;;7.03;79.30;94299.28;5066548;28;19979;-74
2024/03/10 02:54:07;;;;;;;;;;;;;;;6.99;78.76;94306.81;5065968;28;19953;-75
2024/03/10 02:56:32;;;;;;;;;;;;;;;6.97;79.25;94295.06;5066560;28;19961;-74
2024/03/10 02:58:58;;;;;;;;;;;;;;;6.94;80.42;94282.53;5065909;28;19944;-74
2024/03/10 03:01:24;;;;;;;;;;;;;;;6.91;80.04;94284.59;5065895;28;20003;-74
2024/03/10 03:03:51;;;;;;;;;;;;;;;6.89;80.08;94273.63;5065895;28;20010;-74
2024/03/10 03:06:17;;;;;;;;;;;;;;;6.89;81.45;94275.47;5066611;28;19929;-74
2024/03/10 03:08:43;;;;;;;;;;;;;;;6.87;81.56;94275.72;5065876;28;20252;-67
2024/03/10 03:11:09;;;;;;;;;;;;;;;6.85;82.19;94262.13;5064618;28;19937;-81
2024/03/10 03:13:36;;;;;;;;;;;;;;;6.84;83.28;94263.16;5065570;28;19947;-81
2024/03/10 03:16:02;;;;;;;;;;;;;;;6.81;83.39;94250.66;5064501;28;19937;-81
2024/03/10 03:18:29;;;;;;;;;;;;;;;6.79;83.74;94252.72;5065557;28;19934;-81
2024/03/10 03:20:55;;;;;;;;;;;;;;;6.77;83.33;94256.59;5066042;28;19959;-81
2024/03/10 03:23:21;;;;;;;;;;;;;;;6.79;83.13;94262.34;5065470;28;20117;-82
2024/03/10 03:25:49;;;;;;;;;;;;;;;6.77;83.23;94270.41;5065503;28;20127;-81
2024/03/10 03:28:15;;;;;;;;;;;;;;;6.80;84.34;94274.31;5065432;28;19943;-78
2024/03/10 03:30:42;;;;;;;;;;;;;;;6.81;82.67;94270.69;5065374;28;20124;-78
2024/03/10 03:33:09;;;;;;;;;;;;;;;6.82;83.92;94269.66;5065080;28;20237;-78
2024/03/10 03:35:37;;;;;;;;;;;;;;;6.81;84.01;94265.50;5065761;28;19940;-78
2024/03/10 03:38:03;;;;;;;;;;;;;;;6.78;82.70;94261.53;5065271;28;20227;-78
2024/03/10 03:40:29;;;;;;;;;;;;;;;6.75;83.04;94251.63;5065425;28;19938;-78
2024/03/10 03:42:55;;;;;;;;;;;;;;;6.79;83.22;94241.50;5065097;28;19935;-78
2024/03/10 03:45:22;;;;;;;;;;;;;;;6.77;83.52;94240.97;5065854;28;20270;-74
2024/03/10 03:47:48;;;;;;;;;;;;;;;6.77;83.10;94233.94;5065534;28;19933;-67
2024/03/10 03:50:15;;;;;;;;;;;;;;;6.79;83.35;94229.25;5064910;28;19941;-67
2024/03/10 03:52:41;;;;;;;;;;;;;;;6.78;83.45;94227.69;5065620;28;19955;-67
2024/03/10 03:55:07;;;;;;;;;;;;;;;6.80;85.18;94222.22;5064869;28;19934;-67
2024/03/10 03:57:33;;;;;;;;;;;;;;;6.80;85.65;94217.03;5065393;28;19943;-67
2024/03/10 04:00:00;;;;;;;;;;;;;;;6.79;85.42;94218.84;5064781;28;19933;-67
2024/03/10 04:02:26;;;;;;;;;;;;;;;6.78;85.23;94203.47;5064735;28;19929;-74
2024/03/10 04:04:54;;;;;;;;;;;;;;;6.78;84.25;94191.22;5064561;28;19936;-73
2024/03/10 04:07:21;;;;;;;;;;;;;;;6.77;84.58;94181.06;5065122;28;19943;-78
2024/03/10 04:09:47;;;;;;;;;;;;;;;6.77;84.59;94179.25;5065365;28;20133;-78
2024/03/10 04:12:13;;;;;;;;;;;;;;;6.78;84.79;94174.81;5065359;28;19930;-79
2024/03/10 04:14:38;;;;;;;;;;;;;;;6.77;84.24;94175.84;5064437;28;20001;-77
2024/03/10 04:17:04;;;;;;;;;;;;;;;6.74;85.45;94176.34;5064509;28;19937;-78
2024/03/10 04:19:30;;;;;;;;;;;;;;;6.70;85.78;94174.25;5064441;28;19933;-78
2024/03/10 04:21:56;;;;;;;;;;;;;;;6.67;86.10;94174.72;5064451;28;19934;-67
2024/03/10 04:24:22;;;;;;;;;;;;;;;6.65;84.80;94176.00;5064314;28;20227;-78
2024/03/10 04:26:48;;;;;;;;;;;;;;;6.63;84.35;94170.28;5064930;28;19941;-77
2024/03/10 04:29:14;;;;;;;;;;;;;;;6.61;83.63;94188.75;5064274;28;19947;-78
2024/03/10 04:31:40;;;;;;;;;;;;;;;6.61;84.35;94190.56;5064846;28;19936;-78
2024/03/10 04:34:06;;;;;;;;;;;;;;;6.60;83.50;94187.19;5063968;28;20157;-78
2024/03/10 04:36:32;;;;;;;;;;;;;;;6.61;83.71;94182.75;5064699;28;20241;-78
2024/03/10 04:38:59;;;;;;;;;;;;;;;6.62;84.77;94181.75;5064715;28;19936;-74
2024/03/10 04:41:25;;;;;;;;;;;;;;;6.59;84.88;94167.38;5064695;28;20205;-77
2024/03/10 04:43:51;;;;;;;;;;;;;;;6.57;85.77;94164.22;5064117;28;20198;-77
2024/03/10 04:46:20;;;;;;;;;;;;;;;6.56;86.08;94172.31;5064079;28;19941;-77
2024/03/10 04:48:46;;;;;;;;;;;;;;;6.54;86.05;94169.16;5064023;28;19937;-77
2024/03/10 04:51:16;;;;;;;;;;;;;;;6.52;86.78;94173.84;5063962;28;19941;-78
2024/03/10 04:53:43;;;;;;;;;;;;;;;6.49;86.80;94173.31;5063888;28;20018;-77
2024/03/10 04:56:12;;;;;;;;;;;;;;;6.49;86.70;94175.91;5063910;28;19942;-79
2024/03/10 04:58:44;;;;;;;;;;;;;;;6.49;85.56;94181.13;5063851;28;19945;-70
2024/03/10 05:01:10;;;;;;;;;;;;;;;6.47;86.29;94187.59;5063826;28;19935;-73
2024/03/10 05:03:39;;;;;;;;;;;;;;;6.46;86.65;94183.41;5063834;28;19936;-73
2024/03/10 05:06:06;;;;;;;;;;;;;;;6.43;87.47;94182.09;5063825;28;19939;-73
2024/03/10 05:08:33;;;;;;;;;;;;;;;6.40;87.85;94185.19;5063653;28;19964;-72
2024/03/10 05:11:03;;;;;;;;;;;;;;;6.36;87.54;94178.91;5063803;28;19937;-73
2024/03/10 05:13:30;;;;;;;;;;;;;;;6.34;88.04;94182.78;5064719;28;19953;-73
2024/03/10 05:15:56;;;;;;;;;;;;;;;6.29;88.50;94186.13;5066463;28;19943;-72
2024/03/10 05:18:22;;;;;;;;;;;;;;;6.23;88.82;94185.28;5068384;28;20208;-67
2024/03/10 05:20:48;;;;;;;;;;;;;;;6.18;89.98;94189.69;5067809;28;19936;-72
2024/03/10 05:23:14;;;;;;;;;;;;;;;6.13;88.89;94200.78;5067735;28;19935;-72
2024/03/10 05:25:39;;;;;;;;;;;;;;;6.06;89.34;94200.22;5068512;28;20103;-72
2024/03/10 05:28:05;;;;;;;;;;;;;;;6.02;91.85;94206.94;5067671;28;19939;-72
2024/03/10 05:30:31;;;;;;;;;;;;;;;6.00;92.44;94204.56;5068392;28;19932;-72
2024/03/10 05:32:57;;;;;;;;;;;;;;;5.98;92.11;94209.22;5067543;28;20078;-72
2024/03/10 05:35:23;;;;;;;;;;;;;;;5.97;92.29;94196.50;5066215;28;19973;-73
2024/03/10 05:37:49;;;;;;;;;;;;;;;5.94;92.32;94196.94;5067487;28;19946;-67
2024/03/10 05:40:15;;;;;;;;;;;;;;;5.93;92.57;94203.97;5068185;28;20112;-68
2024/03/10 05:42:41;;;;;;;;;;;;;;;5.93;91.94;94209.16;5067644;28;19938;-67
2024/03/10 05:45:07;;;;;;;;;;;;;;;5.94;91.96;94191.72;5067348;28;19935;-67
2024/03/10 05:47:33;;;;;;;;;;;;;;;5.96;90.26;94198.28;5067830;28;19970;-67
2024/03/10 05:49:59;;;;;;;;;;;;;;;5.99;90.05;94202.22;5067241;28;19936;-67
2024/03/10 05:52:26;;;;;;;;;;;;;;;5.98;90.37;94193.63;5067198;28;19958;-74
2024/03/10 05:54:52;;;;;;;;;;;;;;;5.99;90.76;94184.03;5067124;28;19958;-69
2024/03/10 05:57:17;;;;;;;;;;;;;;;5.99;90.82;94177.00;5067101;28;19960;-73
2024/03/10 05:59:43;;;;;;;;;;;;;;;6.00;90.89;94180.38;5067079;28;19937;-73
2024/03/10 06:02:13;;;;;;;;;;;;;;;6.00;89.86;94183.75;5066982;28;19951;-73
2024/03/10 06:04:39;;;;;;;;;;;;;;;6.01;90.15;94181.97;5066709;28;19942;-72
2024/03/10 06:07:06;;;;;;;;;;;;;;;6.03;89.00;94182.50;5065849;28;20232;-73
2024/03/10 06:09:34;;;;;;;;;;;;;;;6.02;89.39;94173.13;5066781;28;19953;-72
2024/03/10 06:12:00;;;;;;;;;;;;;;;5.98;90.25;94179.84;5066886;28;19932;-67
2024/03/10 06:14:26;;;;;;;;;;;;;;;5.97;90.04;94184.25;5066751;28;20265;-67
2024/03/10 06:16:52;;;;;;;;;;;;;;;5.96;90.01;94180.06;5066748;28;19943;-67
2024/03/10 06:27:31;;;;;;;;;;;;;;;6.01;85.62;94187.16;5065305;28;19944;-67
2024/03/10 06:29:57;;;;;;;;;;;;;;;6.04;87.07;94194.47;5066493;28;19933;-73
2024/03/10 06:32:22;;;;;;;;;;;;;;;6.07;88.29;94199.19;5066457;28;19946;-73
2024/03/10 06:34:48;;;;;;;;;;;;;;;6.06;88.06;94202.81;5066264;28;19963;-72
2024/03/10 06:37:14;;;;;;;;;;;;;;;6.06;87.30;94187.22;5066366;28;20140;-73
2024/03/10 06:39:40;;;;;;;;;;;;;;;6.08;89.47;94193.72;5066295;28;19955;-72
2024/03/10 06:42:07;;;;;;;;;;;;;;;6.06;89.50;94192.41;5067048;28;19936;-72
2024/03/10 06:44:34;;;;;;;;;;;;;;;6.03;89.80;94188.50;5066187;28;19944;-73
2024/03/10 06:47:00;;;;;;;;;;;;;;;6.01;89.22;94192.38;5066206;28;19938;-73
2024/03/10 06:49:26;;;;;;;;;;;;;;;5.99;89.10;94186.63;5066150;28;19957;-73
2024/03/10 06:51:52;;;;;;;;;;;;;;;5.98;90.42;94172.81;5066083;28;19933;-69
2024/03/10 06:54:18;;;;;;;;;;;;;;;6.00;91.25;94167.38;5065958;28;19969;-70
2024/03/10 06:56:44;;;;;;;;;;;;;;;6.00;90.56;94152.53;5065967;28;19936;-70
2024/03/10 06:59:12;;;;;;;;;;;;;;;5.99;89.71;94139.81;5066736;28;19977;-70
2024/03/10 07:01:44;;;;;;;;;;;;;;;6.02;87.03;94128.88;5065888;28;20128;-70
2024/03/10 07:04:11;;;;;;;;;;;;;;;6.05;87.08;94134.41;5065814;28;19927;-70
2024/03/10 07:06:40;;;;;;;;;;;;;;;6.08;87.63;94138.31;5065895;28;19934;-79
2024/03/10 07:09:09;;;;;;;;;;;;;;;6.13;87.28;94129.75;5065677;28;19948;-70
2024/03/10 07:11:41;;;;;;;;;;;;;;;6.15;87.92;94138.13;5066222;28;19946;-70
2024/03/10 07:14:07;;;;;;;;;;;;;;;6.17;86.92;94120.44;5065943;28;19950;-70
2024/03/10 07:16:34;;;;;;;;;;;;;;;6.18;87.29;94122.81;5065856;28;19963;-70
2024/03/10 07:18:59;;;;;;;;;;;;;;;6.24;88.28;94128.84;5065622;28;19937;-70
2024/03/10 07:21:25;;;;;;;;;;;;;;;6.27;88.50;94125.72;5066055;28;19971;-70
2024/03/10 07:23:51;;;;;;;;;;;;;;;6.32;88.87;94130.19;5065517;28;19941;-69
2024/03/10 07:26:17;;;;;;;;;;;;;;;6.33;87.56;94129.94;5065437;28;19935;-75
2024/03/10 07:28:43;;;;;;;;;;;;;;;6.36;86.72;94107.84;5065912;28;19934;-79
2024/03/10 07:31:09;;;;;;;;;;;;;;;6.41;87.36;94113.09;5065389;28;19960;-78
2024/03/10 07:33:35;;;;;;;;;;;;;;;6.48;88.61;94124.06;5065449;28;19960;-78
2024/03/10 07:36:01;;;;;;;;;;;;;;;6.56;87.72;94135.88;5065588;28;19947;-78
2024/03/10 07:38:27;;;;;;;;;;;;;;;6.69;87.29;94145.84;5064146;28;19935;-78
2024/03/10 07:40:54;;;;;;;;;;;;;;;6.86;86.88;94151.69;5065708;28;19946;-78
2024/03/10 07:43:20;;;;;;;;;;;;;;;7.17;85.17;94151.09;5065659;28;19935;-70
2024/03/10 07:45:46;;;;;;;;;;;;;;;7.68;84.15;94162.53;5065332;28;19933;-68
2024/03/10 07:48:12;;;;;;;;;;;;;;;8.34;76.06;94161.91;5064993;28;19941;-68
2024/03/10 07:50:38;;;;;;;;;;;;;;;8.87;77.21;94171.34;5064941;28;19935;-67
2024/03/10 07:53:03;;;;;;;;;;;;;;;9.07;74.79;94178.38;5064869;28;20128;-68
2024/03/10 07:55:33;;;;;;;;;;;;;;;9.00;74.94;94173.44;5064848;28;19928;-67
2024/03/10 07:57:59;;;;;;;;;;;;;;;8.84;76.86;94159.59;5064830;28;19934;-68
2024/03/10 08:00:25;;;;;;;;;;;;;;;8.70;76.51;94169.00;5065495;28;19931;-67
2024/03/10 08:02:55;;;;;;;;;;;;;;;8.59;76.98;94170.84;5064759;28;19939;-69
2024/03/10 08:05:21;;;;;;;;;;;;;;;8.51;77.07;94153.84;5063590;28;19946;-79
2024/03/10 08:07:48;;;;;;;;;;;;;;;8.46;74.44;94142.63;5064475;28;19936;-79
2024/03/10 08:10:15;;;;;;;;;;;;;;;8.43;73.28;94156.22;5064552;28;19940;-79
2024/03/10 08:12:43;;;;;;;;;;;;;;;8.43;73.90;94145.75;5064631;28;19932;-78
2024/03/10 08:15:11;;;;;;;;;;;;;;;8.45;72.88;94144.44;5065308;28;19957;-78
2024/03/10 08:17:37;;;;;;;;;;;;;;;8.46;74.79;94121.72;5064527;28;20105;-79
2024/03/10 08:20:06;;;;;;;;;;;;;;;8.44;78.73;94111.56;5064746;28;19936;-80
2024/03/10 08:22:38;;;;;;;;;;;;;;;8.40;79.52;94120.13;5065032;28;19942;-73
2024/03/10 08:25:04;;;;;;;;;;;;;;;8.37;80.65;94129.25;5063278;28;20120;-75
2024/03/10 08:27:31;;;;;;;;;;;;;;;8.33;78.08;94118.56;5065109;28;19945;-74
2024/03/10 08:29:57;;;;;;;;;;;;;;;8.31;77.53;94112.03;5064284;28;19935;-74
2024/03/10 08:32:26;;;;;;;;;;;;;;;8.29;76.24;94127.97;5064205;28;19937;-75
2024/03/10 08:34:53;;;;;;;;;;;;;;;8.26;77.12;94141.53;5063969;28;20014;-75
2024/03/10 08:37:22;;;;;;;;;;;;;;;8.27;77.71;94132.66;5064148;28;19946;-74
2024/03/10 08:39:48;;;;;;;;;;;;;;;8.31;78.90;94125.84;5062974;28;19942;-81
2024/03/10 08:42:20;;;;;;;;;;;;;;;8.30;78.05;94116.47;5063676;28;19945;-79
2024/03/10 08:44:46;;;;;;;;;;;;;;;8.30;78.73;94124.31;5064119;28;19933;-79
2024/03/10 08:47:12;;;;;;;;;;;;;;;8.32;78.63;94130.06;5064004;28;19938;-79
2024/03/10 08:49:38;;;;;;;;;;;;;;;8.34;76.48;94135.03;5063667;28;19936;-79
2024/03/10 08:52:07;;;;;;;;;;;;;;;8.40;77.12;94143.63;5063964;28;19937;-79
2024/03/10 08:54:36;;;;;;;;;;;;;;;8.51;78.28;94132.19;5063846;28;20248;-79
2024/03/10 08:57:04;;;;;;;;;;;;;;;8.78;76.56;94139.75;5063920;28;20122;-74
2024/03/10 08:59:33;;;;;;;;;;;;;;;9.08;75.05;94151.97;5062960;28;19939;-72
2024/03/10 09:02:00;;;;;;;;;;;;;;;9.32;74.91;94143.56;5063843;28;19935;-72
2024/03/10 09:04:26;;;;;;;;;;;;;;;9.75;72.37;94131.63;5064600;28;19938;-73
2024/03/10 09:06:54;;;;;;;;;;;;;;;10.34;69.23;94137.84;5063795;28;20195;-73
2024/03/10 09:09:22;;;;;;;;;;;;;;;10.83;66.40;94145.88;5063680;28;19956;-73
2024/03/10 09:11:49;;;;;;;;;;;;;;;11.07;65.02;94157.19;5063745;28;19951;-73
2024/03/10 09:14:15;;;;;;;;;;;;;;;11.22;65.90;94165.97;5063650;28;19957;-73
2024/03/10 09:16:43;;;;;;;;;;;;;;;11.26;62.44;94177.47;5063722;28;19937;-70
2024/03/10 09:19:09;;;;;;;;;;;;;;;11.15;62.29;94177.56;5063700;28;19934;-73
2024/03/10 09:21:36;;;;;;;;;;;;;;;11.09;62.74;94180.53;5062575;28;19942;-73
2024/03/10 09:24:02;;;;;;;;;;;;;;;11.04;64.70;94155.09;5063822;28;19928;-72
2024/03/10 09:26:28;;;;;;;;;;;;;;;10.95;66.26;94148.91;5063598;28;19943;-73
2024/03/10 09:28:55;;;;;;;;;;;;;;;10.90;67.10;94146.34;5063912;28;19934;-72
2024/03/10 09:31:24;;;;;;;;;;;;;;;10.82;67.46;94139.84;5062429;28;19933;-73
2024/03/10 09:33:53;;;;;;;;;;;;;;;10.75;67.58;94137.56;5063285;28;19967;-70
2024/03/10 09:36:19;;;;;;;;;;;;;;;10.67;69.19;94130.28;5063536;28;19940;-79
2024/03/10 09:38:45;;;;;;;;;;;;;;;10.62;68.27;94127.69;5063995;28;19948;-79
2024/03/10 09:41:15;;;;;;;;;;;;;;;10.60;66.30;94153.38;5063571;28;20145;-79
2024/03/10 09:43:41;;;;;;;;;;;;;;;10.59;67.02;94175.41;5063996;28;19937;-78
2024/03/10 09:46:10;;;;;;;;;;;;;;;10.60;67.50;94179.59;5063492;28;19946;-79
2024/03/10 09:48:36;;;;;;;;;;;;;;;10.63;68.19;94175.66;5063408;28;19935;-79
2024/03/10 09:51:03;;;;;;;;;;;;;;;10.68;68.83;94165.13;5063402;28;19939;-79
2024/03/10 09:53:29;;;;;;;;;;;;;;;10.68;67.52;94163.28;5063278;28;19936;-73
2024/03/10 09:55:55;;;;;;;;;;;;;;;10.67;69.52;94156.50;5063375;28;19930;-79
2024/03/10 09:58:33;;;;;;;;;;;;;;;10.67;68.78;94151.25;5063347;28;19982;-78
2024/03/10 10:01:03;;;;;;;;;;;;;;;10.67;70.13;94142.59;5063897;28;19942;-79
2024/03/10 10:03:29;;;;;;;;;;;;;;;10.64;70.96;94151.78;5067105;28;20125;-79
2024/03/10 10:05:57;;;;;;;;;;;;;;;10.64;71.17;94135.28;5067530;28;19937;-79
2024/03/10 10:08:23;;;;;;;;;;;;;;;10.67;70.41;94135.53;5066846;28;19956;-79
2024/03/10 10:10:49;;;;;;;;;;;;;;;10.69;71.08;94153.59;5066953;28;20005;-79
2024/03/10 10:13:27;;;;;;;;;;;;;;;10.73;71.62;94139.66;5067147;28;19935;-79
2024/03/10 10:15:53;;;;;;;;;;;;;;;10.77;72.35;94135.44;5066754;28;19963;-79
2024/03/10 10:18:21;;;;;;;;;;;;;;;10.80;71.32;94134.09;5066788;28;19962;-79
2024/03/10 10:20:53;;;;;;;;;;;;;;;10.81;70.89;94137.50;5066730;28;19937;-79
2024/03/10 10:23:23;;;;;;;;;;;;;;;10.83;71.62;94143.25;5066915;28;19932;-79
2024/03/10 10:26:09;;;;;;;;;;;;;;;10.87;71.67;94144.25;5066645;28;19947;-79
2024/03/10 10:28:41;;;;;;;;;;;;;;;10.89;71.08;94144.78;5066532;28;19939;-75
2024/03/10 10:31:09;;;;;;;;;;;;;;;10.91;71.57;94140.03;5066608;28;20244;-75
2024/03/10 10:33:34;;;;;;;;;;;;;;;10.91;72.23;94143.44;5066209;28;19962;-70
2024/03/10 10:36:05;;;;;;;;;;;;;;;10.90;71.91;94128.78;5082057;28;19986;-69
2024/03/10 10:38:38;;;;;;;;;;;;;;;10.91;70.30;94129.53;5065778;28;19932;-70
2024/03/10 10:41:07;;;;;;;;;;;;;;;10.93;71.37;94128.19;5066307;28;19935;-69
2024/03/10 10:43:40;;;;;;;;;;;;;;;10.97;71.20;94116.09;5066173;28;20250;-70
2024/03/10 10:46:06;;;;;;;;;;;;;;;11.04;71.12;94105.28;5066259;28;19940;-69
2024/03/10 10:48:35;;;;;;;;;;;;;;;11.08;69.97;94100.28;5066180;28;19929;-74
2024/03/10 10:51:02;;;;;;;;;;;;;;;11.13;70.02;94087.91;5066646;28;19931;-69
2024/03/10 10:53:28;;;;;;;;;;;;;;;11.18;69.90;94082.56;5066065;28;20126;-70
2024/03/10 10:55:54;;;;;;;;;;;;;;;11.25;68.93;94086.72;5066008;28;19954;-70
2024/03/10 10:58:23;;;;;;;;;;;;;;;11.31;69.18;94099.50;5066517;28;19945;-69
2024/03/10 11:00:49;;;;;;;;;;;;;;;11.38;68.19;94109.63;5066461;28;20213;-70
2024/03/10 11:03:24;;;;;;;;;;;;;;;11.45;69.20;94114.56;5065855;28;19969;-70
2024/03/10 11:05:56;;;;;;;;;;;;;;;11.49;67.73;94113.72;5065866;28;19950;-79
2024/03/10 11:08:25;;;;;;;;;;;;;;;11.54;67.54;94115.50;5066046;28;19948;-80
2024/03/10 11:10:52;;;;;;;;;;;;;;;11.62;67.38;94129.88;5066531;28;19937;-80
2024/03/10 11:13:17;;;;;;;;;;;;;;;11.71;65.50;94138.66;5065976;28;20215;-80
2024/03/10 11:15:44;;;;;;;;;;;;;;;11.84;65.30;94139.81;5066333;28;19950;-79
2024/03/10 11:18:20;;;;;;;;;;;;;;;11.93;66.54;94123.19;5065612;28;19931;-80
2024/03/10 11:20:46;;;;;;;;;;;;;;;12.02;66.52;94130.44;5065603;28;19942;-80
2024/03/10 11:23:12;;;;;;;;;;;;;;;12.04;66.51;94130.94;5065481;28;20224;-80
2024/03/10 11:25:37;;;;;;;;;;;;;;;12.05;65.66;94114.09;5065408;28;19935;-74
2024/03/10 11:28:06;;;;;;;;;;;;;;;12.07;66.21;94106.72;5065360;28;19937;-75
2024/03/10 11:30:41;;;;;;;;;;;;;;;12.08;63.98;94114.31;5065299;28;19934;-75
2024/03/10 11:33:07;;;;;;;;;;;;;;;12.09;64.54;94105.34;5065286;28;19944;-76
2024/03/10 11:35:36;;;;;;;;;;;;;;;12.12;63.94;94106.66;5065955;28;19985;-75
2024/03/10 11:38:04;;;;;;;;;;;;;;;12.14;65.06;94115.81;5065142;28;19988;-75
2024/03/10 11:40:32;;;;;;;;;;;;;;;12.16;65.29;94111.06;5065704;28;19929;-75
2024/03/10 11:43:01;;;;;;;;;;;;;;;12.21;65.91;94117.31;5065133;28;19941;-72
2024/03/10 11:45:28;;;;;;;;;;;;;;;12.24;64.95;94132.47;5065101;28;19924;-75
2024/03/10 11:47:55;;;;;;;;;;;;;;;12.23;60.41;94142.22;5065002;28;20192;-75
2024/03/10 11:50:21;;;;;;;;;;;;;;;12.24;63.74;94153.50;5065758;28;19938;-75
2024/03/10 11:52:48;;;;;;;;;;;;;;;12.25;61.39;94153.22;5065505;28;19934;-75
2024/03/10 11:55:18;;;;;;;;;;;;;;;12.29;61.37;94148.97;5065392;28;19955;-75
2024/03/10 11:57:44;;;;;;;;;;;;;;;12.35;63.14;94158.34;5064877;28;19936;-75
2024/03/10 12:00:15;;;;;;;;;;;;;;;12.45;63.96;94144.28;5064869;28;20126;-73
2024/03/10 12:02:41;;;;;;;;;;;;;;;12.53;64.86;94142.84;5065403;28;20116;-78
2024/03/10 12:05:09;;;;;;;;;;;;;;;12.58;65.29;94140.16;5065519;28;19937;-70
2024/03/10 12:07:35;;;;;;;;;;;;;;;12.58;64.03;94138.28;5065414;28;19935;-70
2024/03/10 12:10:08;;;;;;;;;;;;;;;12.57;63.57;94130.69;5064650;28;19962;-69
2024/03/10 12:12:35;;;;;;;;;;;;;;;12.50;62.02;94125.78;5064843;28;20241;-70
2024/03/10 12:15:01;;;;;;;;;;;;;;;12.42;62.67;94115.16;5064496;28;20134;-70
2024/03/10 12:17:27;;;;;;;;;;;;;;;12.33;63.80;94117.66;5064978;28;19936;-69
2024/03/10 12:19:53;;;;;;;;;;;;;;;12.28;64.42;94113.22;5064411;28;19936;-80
2024/03/10 12:22:19;;;;;;;;;;;;;;;12.25;63.83;94119.06;5064412;28;20244;-70
2024/03/10 12:24:46;;;;;;;;;;;;;;;12.28;62.93;94133.47;5063787;28;19938;-70
2024/03/10 12:27:12;;;;;;;;;;;;;;;12.35;62.05;94139.16;5064263;28;20238;-69
2024/03/10 12:29:50;;;;;;;;;;;;;;;12.38;62.83;94149.09;5065063;28;19940;-70
2024/03/10 12:32:17;;;;;;;;;;;;;;;12.40;61.26;94149.59;5064232;28;19936;-70
2024/03/10 12:34:44;;;;;;;;;;;;;;;12.40;63.52;94149.59;5064104;28;19990;-70
2024/03/10 12:37:12;;;;;;;;;;;;;;;12.39;62.50;94155.94;5064158;28;19947;-73
2024/03/10 12:39:38;;;;;;;;;;;;;;;12.41;60.96;94156.44;5064150;28;19934;-73
2024/03/10 12:42:04;;;;;;;;;;;;;;;12.41;62.38;94148.53;5064164;28;20226;-80
2024/03/10 12:44:30;;;;;;;;;;;;;;;12.43;64.27;94146.41;5062928;28;19932;-80
2024/03/10 12:46:56;;;;;;;;;;;;;;;12.45;63.15;94149.53;5064007;28;19986;-79
2024/03/10 12:49:23;;;;;;;;;;;;;;;12.50;63.26;94148.69;5064780;28;19954;-79
2024/03/10 12:51:49;;;;;;;;;;;;;;;12.49;62.55;94145.25;5064010;28;19932;-80
2024/03/10 12:54:14;;;;;;;;;;;;;;;12.49;63.27;94145.25;5064136;28;20249;-79
2024/03/10 12:56:40;;;;;;;;;;;;;;;12.47;63.69;94151.84;5063942;28;20300;-72
2024/03/10 12:59:06;;;;;;;;;;;;;;;12.43;63.38;94145.59;5063931;28;19934;-75
2024/03/10 13:01:34;;;;;;;;;;;;;;;12.40;64.38;94149.59;5063817;28;20226;-75
2024/03/10 13:03:59;;;;;;;;;;;;;;;12.35;64.94;94162.81;5064597;28;19928;-75
2024/03/10 13:06:26;;;;;;;;;;;;;;;12.27;65.76;94164.25;5063776;28;19942;-75
2024/03/10 13:08:52;;;;;;;;;;;;;;;12.17;64.59;94170.41;5063513;28;19958;-75
2024/03/10 13:11:26;;;;;;;;;;;;;;;12.10;65.39;94180.50;5063714;28;19941;-76
2024/03/10 13:13:52;;;;;;;;;;;;;;;12.03;65.96;94181.88;5064019;28;19938;-79
2024/03/10 13:16:18;;;;;;;;;;;;;;;11.93;65.25;94186.22;5063336;28;20232;-80
2024/03/10 13:18:44;;;;;;;;;;;;;;;11.86;66.50;94190.97;5063613;28;19933;-68